createdAt,value
2022-08-24T06:07:12.195Z,73.61
2022-08-24T06:34:19.100Z,73.90
2022-08-24T07:15:55.674Z,73.54
2022-08-24T07:21:27.998Z,73.05
2022-08-24T07:27:50.527Z,72.96
2022-08-24T07:36:38.087Z,72.61
2022-08-24T07:45:53.100Z,72.41
2022-08-24T07:48:48.624Z,71.88
2022-08-24T07:51:27.550Z,71.76
2022-08-24T07:54:14.044Z,71.44
2022-08-24T07:56:55.985Z,71.41
2022-08-24T07:59:43.078Z,70.87
2022-08-24T08:06:24.506Z,71.19
2022-08-24T08:09:04.662Z,70.99
2022-08-24T08:11:32.069Z,70.48
2022-08-24T08:17:04.231Z,70.51
2022-08-24T09:45:51.368Z,66.26
2022-08-24T09:52:23.161Z,65.68
2022-08-24T09:55:08.111Z,65.50
2022-08-24T09:58:00.806Z,65.22
2022-08-24T10:00:38.607Z,64.57
2022-08-24T10:03:33.960Z,64.90
2022-08-24T10:06:17.302Z,64.78
2022-08-24T14:42:12.296Z,55.27
2022-08-24T14:44:57.035Z,54.88
2022-08-24T14:47:42.155Z,55.71
2022-08-24T15:36:14.573Z,56.85
2022-08-24T15:38:52.370Z,56.73
2022-08-24T16:04:44.720Z,57.69
2022-08-24T16:07:16.596Z,57.51
2022-08-24T16:09:43.746Z,57.80
2022-08-24T16:12:16.753Z,57.79
2022-08-24T16:14:48.838Z,57.77
2022-08-24T16:17:34.234Z,57.92
2022-08-24T16:20:06.331Z,57.90
2022-08-24T16:22:36.668Z,57.89
2022-08-24T16:25:26.563Z,58.00
2022-08-24T16:28:05.338Z,57.94
2022-08-24T16:30:41.172Z,58.32
2022-08-24T16:33:08.490Z,58.03
2022-08-24T16:35:35.957Z,58.03
2022-08-24T16:38:04.273Z,58.15
2022-08-24T16:40:34.791Z,58.06
2022-08-24T16:43:02.744Z,58.35
2022-08-24T16:45:32.824Z,58.23
2022-08-24T16:48:03.238Z,58.20
2022-08-24T16:50:30.541Z,58.77
2022-08-24T16:52:57.684Z,58.51
2022-08-24T16:55:24.703Z,58.57
2022-08-24T16:57:51.825Z,58.59
2022-08-24T17:00:19.505Z,58.61
2022-08-24T17:02:48.362Z,58.44
2022-08-24T17:05:16.412Z,58.59
2022-08-24T17:07:43.625Z,58.95
2022-08-24T17:10:12.235Z,58.55
2022-08-24T17:12:41.832Z,58.53
2022-08-24T17:15:17.033Z,58.87
2022-08-24T17:17:56.827Z,58.69
2022-08-24T17:20:25.125Z,58.46
2022-08-24T17:22:52.583Z,58.77
2022-08-24T17:25:19.752Z,58.38
2022-08-24T17:27:47.124Z,57.91
2022-08-24T17:30:17.323Z,58.59
2022-08-24T17:32:44.553Z,58.53
2022-08-24T17:35:11.668Z,58.92
2022-08-24T17:37:39.076Z,58.88
2022-08-24T17:40:07.556Z,59.18
2022-08-24T17:42:50.903Z,59.18
2022-08-24T17:55:58.534Z,60.10
2022-08-24T18:36:38.664Z,62.49
2022-08-24T18:46:53.998Z,62.42
